Time;durP1;ratioP1;P1;durP2;ratioP2;P2;SDS_P1;SDS_P2;PMS_P1;PMS_P2;Temp;Humidity;BMP_temperature;BMP_pressure;BME280_temperature;BME280_humidity;BME280_pressure;Samples;Min_cycle;Max_cycle;Signal;HPM_P1;HPM_P2
2023/01/21 00:00:36;;;;;;;8.48;5.18;;;1.00;99.90;;;;;;5069768;28;20462;-78
2023/01/21 00:03:02;;;;;;;8.23;4.72;;;1.00;99.90;;;;;;5052447;28;20039;-79
2023/01/21 00:05:27;;;;;;;10.80;4.90;;;1.00;99.90;;;;;;5075840;28;20107;-79
2023/01/21 00:07:53;;;;;;;18.40;4.32;;;1.00;99.90;;;;;;5052558;28;20551;-79
2023/01/21 00:10:19;;;;;;;9.15;5.18;;;1.00;99.90;;;;;;5073901;28;20049;-78
2023/01/21 00:12:44;;;;;;;8.25;4.82;;;1.00;99.90;;;;;;5064809;28;20040;-79
2023/01/21 00:15:10;;;;;;;10.38;4.45;;;1.00;99.90;;;;;;5053736;28;20024;-79
2023/01/21 00:17:35;;;;;;;9.25;4.50;;;1.00;99.90;;;;;;5055458;28;20039;-79
2023/01/21 00:20:03;;;;;;;11.00;4.63;;;1.00;99.90;;;;;;5084654;28;20047;-79
2023/01/21 00:22:29;;;;;;;12.50;4.50;;;1.00;99.90;;;;;;5070658;28;20037;-79
2023/01/21 00:24:54;;;;;;;8.30;4.95;;;1.00;99.90;;;;;;5071388;28;20036;-79
2023/01/21 00:27:20;;;;;;;8.25;4.32;;;1.00;99.90;;;;;;5070607;28;20528;-79
2023/01/21 00:29:45;;;;;;;11.48;5.20;;;1.00;99.90;;;;;;5063310;28;20043;-79
2023/01/21 00:32:11;;;;;;;9.68;4.82;;;0.90;99.90;;;;;;5073699;28;20040;-79
2023/01/21 00:34:37;;;;;;;10.43;5.45;;;0.90;99.90;;;;;;5074417;28;20109;-79
2023/01/21 00:37:02;;;;;;;11.30;5.20;;;0.90;99.90;;;;;;5072066;28;20052;-79
2023/01/21 00:39:28;;;;;;;10.63;4.65;;;0.90;99.90;;;;;;5057045;28;20050;-79
2023/01/21 00:41:53;;;;;;;9.50;3.92;;;0.90;99.90;;;;;;5059837;28;20051;-79
2023/01/21 00:44:19;;;;;;;11.80;4.90;;;0.90;99.90;;;;;;5072834;28;20039;-79
2023/01/21 00:46:44;;;;;;;12.07;5.70;;;1.00;99.90;;;;;;5060149;28;20051;-79
2023/01/21 00:49:10;;;;;;;10.50;5.65;;;1.00;99.90;;;;;;5082255;28;20115;-78
2023/01/21 00:51:36;;;;;;;11.40;4.78;;;1.00;99.90;;;;;;5074648;28;20082;-79
2023/01/21 00:54:01;;;;;;;9.20;5.03;;;1.00;99.90;;;;;;5072648;28;20029;-79
2023/01/21 00:56:27;;;;;;;11.30;5.10;;;0.90;99.90;;;;;;5061752;28;20028;-78
2023/01/21 00:58:52;;;;;;;8.02;4.22;;;0.90;99.90;;;;;;5074070;28;20113;-78
2023/01/21 01:01:20;;;;;;;12.18;4.85;;;0.90;99.90;;;;;;5078126;28;20510;-78
2023/01/21 01:03:47;;;;;;;6.95;3.45;;;0.90;99.90;;;;;;5056981;28;20044;-79
2023/01/21 01:06:21;;;;;;;11.73;5.18;;;0.90;99.90;;;;;;5075045;28;20055;-78
2023/01/21 01:08:50;;;;;;;10.32;4.63;;;0.90;99.90;;;;;;5090427;28;20054;-78
2023/01/21 01:11:17;;;;;;;10.05;4.85;;;0.90;99.90;;;;;;5055540;28;20072;-78
2023/01/21 01:13:43;;;;;;;9.73;4.43;;;0.90;99.90;;;;;;5054327;28;20041;-78
2023/01/21 01:16:11;;;;;;;10.02;4.75;;;0.90;99.90;;;;;;5058955;28;20046;-78
2023/01/21 01:18:37;;;;;;;11.35;4.25;;;0.90;99.90;;;;;;5086337;28;20040;-78
2023/01/21 01:21:04;;;;;;;8.05;4.18;;;0.90;99.90;;;;;;5071552;28;20032;-79
2023/01/21 01:23:30;;;;;;;7.72;3.78;;;0.90;99.90;;;;;;5068997;28;20122;-78
2023/01/21 01:25:59;;;;;;;10.70;4.25;;;0.90;99.90;;;;;;5051807;28;20540;-78
2023/01/21 01:28:25;;;;;;;8.80;3.63;;;0.90;99.90;;;;;;5052291;28;20041;-78
2023/01/21 01:30:51;;;;;;;10.55;5.85;;;0.90;99.90;;;;;;5073290;28;20077;-78
2023/01/21 01:33:18;;;;;;;9.43;3.72;;;0.80;99.90;;;;;;5069998;28;20035;-78
2023/01/21 01:35:46;;;;;;;9.38;4.85;;;0.90;99.90;;;;;;5053975;28;20040;-79
2023/01/21 01:38:13;;;;;;;10.60;3.97;;;0.80;99.90;;;;;;5059431;28;20024;-79
2023/01/21 01:40:39;;;;;;;8.10;3.92;;;0.80;99.90;;;;;;5073574;28;20480;-78
2023/01/21 01:43:15;;;;;;;8.77;4.47;;;0.80;99.90;;;;;;5075257;28;20067;-79
2023/01/21 01:45:41;;;;;;;9.80;5.55;;;0.80;99.90;;;;;;5056989;28;20059;-79
2023/01/21 01:48:09;;;;;;;10.05;4.95;;;0.80;99.90;;;;;;5093891;28;20036;-78
2023/01/21 01:50:38;;;;;;;11.93;5.25;;;0.80;99.90;;;;;;5069210;28;20048;-79
2023/01/21 01:53:03;;;;;;;10.60;5.75;;;0.80;99.90;;;;;;5071502;28;20043;-78
2023/01/21 01:55:32;;;;;;;11.95;5.28;;;0.80;99.90;;;;;;5056961;28;20025;-78
2023/01/21 01:58:01;;;;;;;7.55;4.20;;;0.80;99.90;;;;;;5079316;28;20762;-78
2023/01/21 02:00:27;;;;;;;8.27;4.10;;;0.80;99.90;;;;;;5070728;28;20483;-78
2023/01/21 02:05:40;;;;;;;9.25;3.92;;;1.00;99.90;;;;;;5071117;28;20135;-78
2023/01/21 02:08:06;;;;;;;10.32;5.07;;;1.00;99.90;;;;;;5054183;28;20039;-78
2023/01/21 02:10:33;;;;;;;11.80;4.80;;;1.00;99.90;;;;;;5074558;28;20044;-78
2023/01/21 02:12:59;;;;;;;9.77;4.40;;;1.10;99.90;;;;;;5075709;28;20402;-79
2023/01/21 02:15:31;;;;;;;9.45;4.80;;;1.10;99.90;;;;;;5056578;28;20036;-78
2023/01/21 02:18:23;;;;;;;13.80;5.88;;;1.10;99.90;;;;;;5067921;28;20044;-78
2023/01/21 02:21:05;;;;;;;10.77;4.55;;;1.10;99.90;;;;;;5076444;28;20036;-78
2023/01/21 02:23:52;;;;;;;10.45;4.50;;;1.20;99.90;;;;;;5075092;28;20033;-78
2023/01/21 02:26:47;;;;;;;11.13;5.05;;;1.20;99.90;;;;;;5086559;28;20056;-78
2023/01/21 02:29:40;;;;;;;8.32;4.15;;;1.20;99.90;;;;;;5053912;28;20067;-79
2023/01/21 02:32:38;;;;;;;8.00;3.92;;;1.10;99.90;;;;;;5074723;28;20473;-78
2023/01/21 02:35:24;;;;;;;12.75;5.18;;;1.10;99.90;;;;;;5075177;28;20037;-79
2023/01/21 02:38:05;;;;;;;9.68;4.45;;;1.10;99.90;;;;;;5073315;28;20508;-78
2023/01/21 02:40:57;;;;;;;6.43;3.85;;;1.10;99.90;;;;;;5061936;28;20054;-78
2023/01/21 02:43:33;;;;;;;12.27;3.67;;;1.10;99.90;;;;;;5080785;28;20131;-78
2023/01/21 02:46:17;;;;;;;9.23;3.85;;;1.00;99.90;;;;;;5074659;28;20525;-78
2023/01/21 02:48:51;;;;;;;8.73;4.05;;;1.00;99.90;;;;;;5055777;28;20546;-78
2023/01/21 02:51:19;;;;;;;10.88;4.65;;;0.90;99.90;;;;;;5078857;28;20032;-78
2023/01/21 02:53:44;;;;;;;9.20;4.03;;;0.90;99.90;;;;;;5090825;28;21710;-78
2023/01/21 02:56:13;;;;;;;11.50;4.60;;;1.00;99.90;;;;;;5074416;28;20542;-78
2023/01/21 02:58:47;;;;;;;12.43;5.18;;;1.00;99.90;;;;;;5080342;28;20063;-79
2023/01/21 03:01:29;;;;;;;11.63;5.47;;;1.10;99.90;;;;;;5079036;28;20493;-79
2023/01/21 03:04:22;;;;;;;12.32;5.88;;;1.10;99.90;;;;;;5070042;28;20499;-79
2023/01/21 03:07:18;;;;;;;10.07;4.15;;;1.20;99.90;;;;;;5072780;28;20043;-78
2023/01/21 03:09:44;;;;;;;;;;;1.20;99.90;;;;;;5086651;28;20044;-78
2023/01/21 03:12:28;;;;;;;9.93;5.72;;;1.20;99.90;;;;;;5068801;28;19920;-78
2023/01/21 03:17:50;;;;;;;13.55;5.30;;;1.20;99.90;;;;;;5070727;28;20068;-79
2023/01/21 03:20:34;;;;;;;9.55;4.43;;;1.20;99.90;;;;;;5053041;28;20033;-79
2023/01/21 03:23:09;;;;;;;13.68;6.63;;;1.30;99.90;;;;;;5072232;28;20398;-78
2023/01/21 03:25:36;;;;;;;10.95;5.82;;;1.30;99.90;;;;;;5053571;28;20036;-78
2023/01/21 03:28:07;;;;;;;9.40;4.72;;;1.30;99.90;;;;;;5076256;28;20459;-78
2023/01/21 03:30:33;;;;;;;12.65;4.75;;;1.40;99.90;;;;;;5056832;28;20488;-78
2023/01/21 03:33:01;;;;;;;12.73;4.72;;;1.30;99.90;;;;;;5079195;28;20406;-78
2023/01/21 03:35:40;;;;;;;13.38;5.57;;;1.40;99.90;;;;;;5064345;28;20041;-78
2023/01/21 03:38:23;;;;;;;15.73;5.18;;;1.30;99.90;;;;;;5049735;28;20044;-79
2023/01/21 03:40:55;;;;;;;11.80;3.72;;;1.40;99.90;;;;;;5070465;28;20390;-79
2023/01/21 03:43:21;;;;;;;11.60;5.78;;;1.30;99.90;;;;;;5067599;28;20036;-79
2023/01/21 03:46:06;;;;;;;11.98;4.85;;;1.40;99.90;;;;;;5073734;28;20036;-78
2023/01/21 03:48:48;;;;;;;10.70;5.95;;;1.40;99.90;;;;;;5074696;28;20051;-79
2023/01/21 03:51:24;;;;;;;11.18;5.68;;;1.40;99.90;;;;;;5066179;28;20040;-79
2023/01/21 03:53:57;;;;;;;9.05;5.15;;;1.40;99.90;;;;;;5078422;28;20032;-78
2023/01/21 03:56:24;;;;;;;13.15;5.75;;;1.40;99.90;;;;;;5052227;28;20092;-78
2023/01/21 03:58:50;;;;;;;10.35;5.40;;;1.40;99.90;;;;;;5073841;28;20044;-78
2023/01/21 04:01:15;;;;;;;9.85;5.43;;;1.40;99.90;;;;;;5072437;28;20500;-79
2023/01/21 04:03:42;;;;;;;12.15;6.22;;;1.40;99.90;;;;;;5058328;28;20091;-78
2023/01/21 04:06:13;;;;;;;11.98;4.90;;;1.40;99.90;;;;;;5056505;28;20038;-78
2023/01/21 04:08:39;;;;;;;8.65;4.43;;;1.40;99.90;;;;;;5074028;28;20051;-78
2023/01/21 04:11:05;;;;;;;9.52;4.72;;;1.40;99.90;;;;;;5079627;28;20044;-79
2023/01/21 04:13:30;;;;;;;10.18;5.60;;;1.40;99.90;;;;;;5057155;28;20497;-79
2023/01/21 04:15:56;;;;;;;12.35;5.03;;;1.30;99.90;;;;;;5058411;28;20393;-78
2023/01/21 04:18:21;;;;;;;10.15;5.22;;;1.30;99.90;;;;;;5073155;28;20044;-78
2023/01/21 04:20:47;;;;;;;10.10;5.05;;;1.30;99.90;;;;;;5070087;28;20070;-78
2023/01/21 04:23:12;;;;;;;8.95;4.22;;;1.30;99.90;;;;;;5054803;28;20051;-78
2023/01/21 04:25:38;;;;;;;11.45;5.60;;;1.30;99.90;;;;;;5071668;28;20033;-78
2023/01/21 04:28:04;;;;;;;9.77;5.57;;;1.30;99.90;;;;;;5075221;28;20063;-78
2023/01/21 04:30:29;;;;;;;10.10;5.35;;;1.30;99.90;;;;;;5078127;28;20040;-78
2023/01/21 04:32:55;;;;;;;10.02;4.35;;;1.30;99.90;;;;;;5066586;28;20115;-78
2023/01/21 04:35:20;;;;;;;9.15;4.78;;;1.20;99.90;;;;;;5079143;28;20039;-78
2023/01/21 04:37:46;;;;;;;8.93;4.47;;;1.10;99.90;;;;;;5073776;28;20405;-78
2023/01/21 04:40:12;;;;;;;9.35;3.90;;;1.10;99.90;;;;;;5060494;28;20036;-78
2023/01/21 04:42:38;;;;;;;8.32;3.90;;;1.10;99.90;;;;;;5072676;28;20105;-78
2023/01/21 04:45:05;;;;;;;10.45;4.63;;;1.10;99.90;;;;;;5078240;28;20071;-78
2023/01/21 04:47:30;;;;;;;7.75;4.38;;;1.10;99.90;;;;;;5069788;28;20169;-78
2023/01/21 04:49:56;;;;;;;8.00;3.95;;;1.10;99.90;;;;;;5059060;28;20044;-79
2023/01/21 04:52:22;;;;;;;7.45;3.97;;;1.10;99.90;;;;;;5057213;28;20032;-78
2023/01/21 04:54:47;;;;;;;9.48;4.45;;;1.20;99.90;;;;;;5053421;28;20048;-78
2023/01/21 04:57:13;;;;;;;12.50;5.22;;;1.20;99.90;;;;;;5059141;28;20028;-79
2023/01/21 04:59:38;;;;;;;9.20;4.10;;;1.10;99.90;;;;;;5079222;28;20039;-78
2023/01/21 05:02:04;;;;;;;11.60;4.15;;;1.10;99.90;;;;;;5074260;28;20064;-78
2023/01/21 05:04:31;;;;;;;9.60;3.83;;;1.20;99.90;;;;;;5075228;28;20401;-79
2023/01/21 05:06:57;;;;;;;8.88;3.97;;;1.10;99.90;;;;;;5074035;28;21445;-79
2023/01/21 05:09:23;;;;;;;10.73;5.50;;;1.20;99.90;;;;;;5076710;28;20052;-79
2023/01/21 05:11:49;;;;;;;8.00;3.38;;;1.20;99.90;;;;;;5058034;28;20409;-79
2023/01/21 05:14:14;;;;;;;9.27;4.45;;;1.20;99.90;;;;;;5059893;28;20024;-79
2023/01/21 05:16:40;;;;;;;10.65;4.65;;;1.20;99.90;;;;;;5079009;28;20036;-79
2023/01/21 05:19:05;;;;;;;9.30;4.07;;;1.20;99.90;;;;;;5074125;28;20041;-79
2023/01/21 05:21:31;;;;;;;10.10;4.32;;;1.20;99.90;;;;;;5060498;28;20078;-79
2023/01/21 05:23:56;;;;;;;9.30;3.83;;;1.20;99.90;;;;;;5053175;28;20029;-79
2023/01/21 05:26:22;;;;;;;12.02;5.07;;;1.20;99.90;;;;;;5057583;28;20051;-79
2023/01/21 05:28:48;;;;;;;8.50;3.47;;;1.20;99.90;;;;;;5053430;28;20047;-78
2023/01/21 05:31:13;;;;;;;9.70;4.65;;;1.30;99.90;;;;;;5054695;28;20717;-79
2023/01/21 05:33:39;;;;;;;11.57;5.93;;;1.30;99.90;;;;;;5052241;28;20401;-79
2023/01/21 05:36:05;;;;;;;8.75;4.22;;;1.30;99.90;;;;;;5069473;28;20032;-79
2023/01/21 05:38:31;;;;;;;8.48;4.43;;;1.30;99.90;;;;;;5060381;28;20033;-79
2023/01/21 05:40:58;;;;;;;10.25;4.50;;;1.30;99.90;;;;;;5073108;28;20037;-78
2023/01/21 05:43:24;;;;;;;12.85;5.03;;;1.30;99.90;;;;;;5076039;28;21139;-79
2023/01/21 05:45:50;;;;;;;7.97;3.65;;;1.40;99.90;;;;;;5062089;28;20067;-78
2023/01/21 05:48:15;;;;;;;7.88;3.40;;;1.30;99.90;;;;;;5071631;28;20478;-79
2023/01/21 05:50:41;;;;;;;5.78;3.15;;;1.30;99.90;;;;;;5050738;28;20043;-78
2023/01/21 05:53:06;;;;;;;5.93;3.20;;;1.40;99.90;;;;;;5067642;28;20364;-79
2023/01/21 05:55:32;;;;;;;7.78;4.13;;;1.40;99.90;;;;;;5073720;28;20367;-78
2023/01/21 05:57:58;;;;;;;10.10;3.97;;;1.40;99.90;;;;;;5078188;28;20028;-78
2023/01/21 06:00:23;;;;;;;7.60;3.92;;;1.40;99.90;;;;;;5061400;28;20035;-78
2023/01/21 06:02:49;;;;;;;7.60;3.05;;;1.40;99.90;;;;;;5051425;28;20283;-79
2023/01/21 06:05:15;;;;;;;12.35;4.75;;;1.40;99.90;;;;;;5076762;28;20032;-79
2023/01/21 06:07:40;;;;;;;9.50;4.30;;;1.40;99.90;;;;;;5056326;28;20136;-79
2023/01/21 06:10:07;;;;;;;11.35;4.50;;;1.40;99.90;;;;;;5086123;28;20405;-78
2023/01/21 06:12:32;;;;;;;8.80;4.13;;;1.40;99.90;;;;;;5051152;28;20043;-78
2023/01/21 06:14:59;;;;;;;10.68;4.53;;;1.40;99.90;;;;;;5074845;28;20024;-78
2023/01/21 06:17:25;;;;;;;12.27;5.13;;;1.50;99.90;;;;;;5054556;28;20041;-78
2023/01/21 06:19:51;;;;;;;10.18;4.65;;;1.40;99.90;;;;;;5062600;28;20880;-78
2023/01/21 06:22:17;;;;;;;10.73;4.63;;;1.50;99.90;;;;;;5060298;28;20044;-78
2023/01/21 06:24:43;;;;;;;10.15;4.10;;;1.40;99.90;;;;;;5055182;28;20044;-78
2023/01/21 06:27:09;;;;;;;8.95;3.95;;;1.40;99.90;;;;;;5056306;28;20048;-78
2023/01/21 06:29:35;;;;;;;6.43;3.67;;;1.40;99.90;;;;;;5070979;28;20135;-78
2023/01/21 06:32:01;;;;;;;7.70;3.03;;;1.40;99.90;;;;;;5068696;28;20038;-79
2023/01/21 06:34:26;;;;;;;9.02;4.13;;;1.40;99.90;;;;;;5073046;28;20478;-78
2023/01/21 06:36:52;;;;;;;10.18;4.55;;;1.40;99.90;;;;;;5059413;28;20539;-79
2023/01/21 06:39:17;;;;;;;7.93;3.75;;;1.40;99.90;;;;;;5072709;28;20089;-79
2023/01/21 06:41:43;;;;;;;7.85;4.22;;;1.40;99.90;;;;;;5078464;28;20833;-78
2023/01/21 06:44:09;;;;;;;9.93;4.88;;;1.40;99.90;;;;;;5070590;28;20112;-78
2023/01/21 06:46:34;;;;;;;7.47;3.42;;;1.40;99.90;;;;;;5072936;28;20131;-78
2023/01/21 06:49:00;;;;;;;8.75;4.25;;;1.40;99.90;;;;;;5075624;28;20489;-78
2023/01/21 06:51:26;;;;;;;9.52;4.75;;;1.40;99.90;;;;;;5078182;28;20109;-79
2023/01/21 06:53:52;;;;;;;15.15;6.30;;;1.40;99.90;;;;;;5063461;28;20671;-79
2023/01/21 06:56:17;;;;;;;10.98;4.85;;;1.30;99.90;;;;;;5079693;28;20550;-79
2023/01/21 06:58:43;;;;;;;11.52;5.30;;;1.40;99.90;;;;;;5060214;28;20508;-79
2023/01/21 07:01:08;;;;;;;8.75;4.95;;;1.40;99.90;;;;;;5098292;28;20425;-79
2023/01/21 07:03:34;;;;;;;7.53;3.88;;;1.40;99.90;;;;;;5085729;28;20042;-79
2023/01/21 07:06:00;;;;;;;14.48;5.82;;;1.40;99.90;;;;;;5075720;28;20075;-79
2023/01/21 07:08:25;;;;;;;9.65;5.28;;;1.30;99.90;;;;;;5070114;28;20044;-79
2023/01/21 07:10:51;;;;;;;11.95;4.93;;;1.30;99.90;;;;;;5049406;28;20043;-78
2023/01/21 07:13:16;;;;;;;11.63;5.50;;;1.30;99.90;;;;;;5072454;28;20071;-78
2023/01/21 07:15:42;;;;;;;13.48;5.78;;;1.30;99.90;;;;;;5075793;28;20436;-78
2023/01/21 07:18:07;;;;;;;13.82;5.07;;;1.20;99.90;;;;;;5074325;28;20032;-78
2023/01/21 07:20:33;;;;;;;10.18;5.30;;;1.20;99.90;;;;;;5068021;28;20097;-78
2023/01/21 07:22:59;;;;;;;13.05;6.00;;;1.20;99.90;;;;;;5069863;28;20039;-78
2023/01/21 07:25:25;;;;;;;12.23;5.95;;;1.20;99.90;;;;;;5070138;28;20032;-78
2023/01/21 07:27:50;;;;;;;12.90;5.68;;;1.20;99.90;;;;;;5052953;28;20119;-79
2023/01/21 07:30:17;;;;;;;11.52;6.10;;;1.20;99.90;;;;;;5068275;28;20048;-78
2023/01/21 07:32:44;;;;;;;11.98;4.72;;;1.20;99.90;;;;;;5059161;28;20498;-78
2023/01/21 07:35:10;;;;;;;11.90;4.38;;;1.20;99.90;;;;;;5070795;28;20075;-78
2023/01/21 07:37:36;;;;;;;11.93;5.45;;;1.20;99.90;;;;;;5079856;28;20517;-78
2023/01/21 07:40:01;;;;;;;11.90;5.03;;;1.10;99.90;;;;;;5074377;28;20062;-78
2023/01/21 07:42:27;;;;;;;14.05;5.97;;;1.10;99.90;;;;;;5070241;28;20061;-78
2023/01/21 07:44:53;;;;;;;9.80;4.85;;;1.10;99.90;;;;;;5064469;28;20144;-78
2023/01/21 07:47:18;;;;;;;10.93;4.75;;;1.10;99.90;;;;;;5076198;28;20094;-78
2023/01/21 07:49:44;;;;;;;15.00;6.15;;;1.20;99.90;;;;;;5054392;28;20043;-78
2023/01/21 07:52:09;;;;;;;14.15;6.45;;;1.20;99.90;;;;;;5068045;28;20425;-78
2023/01/21 07:54:35;;;;;;;13.65;6.47;;;1.20;99.90;;;;;;5059421;28;20089;-78
2023/01/21 07:57:01;;;;;;;11.23;5.13;;;1.20;99.90;;;;;;5077211;28;20512;-78
2023/01/21 07:59:26;;;;;;;11.57;4.88;;;1.20;99.90;;;;;;5079200;28;20040;-79
2023/01/21 08:01:52;;;;;;;13.50;5.97;;;1.20;99.90;;;;;;5067014;28;20046;-78
2023/01/21 08:04:17;;;;;;;12.70;4.40;;;1.30;99.90;;;;;;5078825;28;20074;-78
2023/01/21 08:06:43;;;;;;;11.63;5.07;;;1.30;99.90;;;;;;5056126;28;20050;-78
2023/01/21 08:09:09;;;;;;;12.95;5.47;;;1.30;99.90;;;;;;5053403;28;20044;-78
2023/01/21 08:11:35;;;;;;;14.15;5.13;;;1.30;99.90;;;;;;5060197;28;20048;-78
2023/01/21 08:14:01;;;;;;;14.40;5.78;;;1.40;99.90;;;;;;5061253;28;20583;-78
2023/01/21 08:16:26;;;;;;;11.55;4.70;;;1.30;99.90;;;;;;5058764;28;20064;-78
2023/01/21 08:18:53;;;;;;;12.68;5.40;;;1.30;99.90;;;;;;5063692;28;20112;-79
2023/01/21 08:21:19;;;;;;;14.35;6.07;;;1.30;99.90;;;;;;5072664;28;20040;-78
2023/01/21 08:23:45;;;;;;;11.38;5.50;;;1.30;99.90;;;;;;5064908;28;20032;-79
2023/01/21 08:26:11;;;;;;;11.02;5.43;;;1.30;99.90;;;;;;5074820;28;20040;-78
2023/01/21 08:28:36;;;;;;;13.75;6.00;;;1.30;99.90;;;;;;5078478;28;20131;-78
2023/01/21 08:31:04;;;;;;;12.98;5.38;;;1.30;99.90;;;;;;5083406;28;20040;-79
2023/01/21 08:33:30;;;;;;;11.02;5.53;;;1.30;99.90;;;;;;5072203;28;20390;-78
2023/01/21 08:35:59;;;;;;;12.70;5.93;;;1.30;99.90;;;;;;5075520;28;20024;-78
2023/01/21 08:38:25;;;;;;;12.55;5.57;;;1.30;99.90;;;;;;5072884;28;20040;-79
2023/01/21 08:40:51;;;;;;;13.07;5.18;;;1.30;99.90;;;;;;5061472;28;20042;-79
2023/01/21 08:43:16;;;;;;;17.95;6.15;;;1.30;99.90;;;;;;5068227;28;20032;-79
2023/01/21 08:45:42;;;;;;;11.48;5.53;;;1.30;99.90;;;;;;5058319;28;20043;-79
2023/01/21 08:48:07;;;;;;;14.27;6.72;;;1.40;99.90;;;;;;5075397;28;20032;-78
2023/01/21 08:50:33;;;;;;;9.65;5.05;;;1.40;99.90;;;;;;5054729;28;20047;-78
2023/01/21 08:52:58;;;;;;;11.15;5.70;;;1.40;99.90;;;;;;5067043;28;20710;-78
2023/01/21 08:55:25;;;;;;;9.73;4.57;;;1.40;99.90;;;;;;5081771;28;20299;-80
2023/01/21 08:57:52;;;;;;;10.35;5.13;;;1.40;99.90;;;;;;5071214;28;20749;-76
2023/01/21 09:00:19;;;;;;;13.43;5.25;;;1.40;99.90;;;;;;5077890;28;20095;-78
2023/01/21 09:02:45;;;;;;;11.43;5.30;;;1.40;99.90;;;;;;5085402;28;20045;-78
2023/01/21 09:05:10;;;;;;;11.93;5.90;;;1.40;99.90;;;;;;5069585;28;20036;-78
2023/01/21 09:07:36;;;;;;;12.82;6.13;;;1.40;99.90;;;;;;5070392;28;20040;-78
2023/01/21 09:10:03;;;;;;;11.07;5.20;;;1.40;99.90;;;;;;5052932;28;20056;-78
2023/01/21 09:12:29;;;;;;;11.18;5.95;;;1.40;99.90;;;;;;5083945;28;20047;-78
2023/01/21 09:14:55;;;;;;;11.15;5.05;;;1.40;99.90;;;;;;5073828;28;20039;-78
2023/01/21 09:17:21;;;;;;;12.35;5.57;;;1.50;99.90;;;;;;5090572;28;20085;-78
2023/01/21 09:19:47;;;;;;;11.68;5.10;;;1.50;99.90;;;;;;5069174;28;20118;-78
2023/01/21 09:22:13;;;;;;;12.38;5.18;;;1.50;99.90;;;;;;5090207;28;20113;-78
2023/01/21 09:24:39;;;;;;;9.65;4.80;;;1.40;99.90;;;;;;5094320;28;20525;-78
2023/01/21 09:27:08;;;;;;;12.13;6.20;;;1.40;99.90;;;;;;5067697;28;20047;-78
2023/01/21 09:29:34;;;;;;;10.57;5.70;;;1.40;99.90;;;;;;5073180;28;20055;-78
2023/01/21 09:32:01;;;;;;;10.55;4.68;;;1.40;99.90;;;;;;5090586;28;20028;-78
2023/01/21 09:34:27;;;;;;;8.45;4.35;;;1.40;99.90;;;;;;5090046;28;20406;-78
2023/01/21 09:36:53;;;;;;;13.40;5.82;;;1.40;99.90;;;;;;5089587;28;20444;-78
2023/01/21 09:39:18;;;;;;;8.45;4.20;;;1.40;99.90;;;;;;5069354;28;20385;-78
2023/01/21 09:41:53;;;;;;;9.38;5.07;;;1.40;99.90;;;;;;5059648;28;20055;-77
2023/01/21 09:44:21;;;;;;;10.75;5.07;;;1.50;99.90;;;;;;5057626;28;20063;-78
2023/01/21 09:46:54;;;;;;;13.82;5.65;;;1.50;99.90;;;;;;5079049;28;20043;-78
2023/01/21 09:49:41;;;;;;;11.60;5.20;;;1.60;99.90;;;;;;5066471;28;20051;-78
2023/01/21 09:52:42;;;;;;;10.85;5.40;;;1.60;99.90;;;;;;5058561;28;20119;-78
2023/01/21 09:55:45;;;;;;;10.95;5.68;;;1.60;99.90;;;;;;5055798;28;20041;-78
2023/01/21 09:58:18;;;;;;;14.05;7.03;;;1.70;99.90;;;;;;5067660;28;20131;-78
2023/01/21 10:00:53;;;;;;;10.73;5.72;;;1.60;99.90;;;;;;5076369;28;20036;-78
2023/01/21 10:03:48;;;;;;;11.95;5.45;;;1.60;99.90;;;;;;5083337;28;20386;-78
2023/01/21 10:06:29;;;;;;;13.68;6.63;;;1.70;99.90;;;;;;5046393;28;20083;-78
2023/01/21 10:09:03;;;;;;;10.40;5.10;;;1.60;99.90;;;;;;5084318;28;20039;-78
2023/01/21 10:11:46;;;;;;;11.80;5.65;;;1.70;99.90;;;;;;5081598;28;20060;-78
2023/01/21 10:14:19;;;;;;;13.23;5.47;;;1.70;99.90;;;;;;5068716;28;20032;-78
2023/01/21 10:17:26;;;;;;;12.23;5.47;;;1.70;99.90;;;;;;5084645;28;20032;-84
2023/01/21 10:20:10;;;;;;;10.38;5.30;;;1.80;99.90;;;;;;5071725;28;20503;-78
2023/01/21 10:22:37;;;;;;;10.20;5.45;;;1.80;99.90;;;;;;5081037;28;20044;-78
2023/01/21 10:25:19;;;;;;;13.27;5.25;;;1.70;99.90;;;;;;5069279;28;20059;-78
2023/01/21 10:27:44;;;;;;;12.23;6.20;;;1.80;99.90;;;;;;5074041;28;20041;-78
2023/01/21 10:30:35;;;;;;;10.57;5.65;;;1.80;99.90;;;;;;5068562;28;20393;-78
2023/01/21 10:33:01;;;;;;;14.55;6.28;;;1.80;99.90;;;;;;5046762;28;20044;-78
2023/01/21 10:35:51;;;;;;;9.63;4.78;;;1.80;99.90;;;;;;5070638;28;20391;-78
2023/01/21 10:38:46;;;;;;;12.52;6.20;;;1.70;99.90;;;;;;5053896;28;20032;-78
2023/01/21 10:41:49;;;;;;;8.80;4.30;;;1.70;99.90;;;;;;5073814;28;20044;-78
2023/01/21 10:44:22;;;;;;;11.05;5.00;;;1.80;99.90;;;;;;5066897;28;20036;-78
2023/01/21 10:46:58;;;;;;;13.25;5.63;;;1.70;99.90;;;;;;5083988;28;20082;-78
2023/01/21 10:49:51;;;;;;;9.63;5.53;;;1.80;99.90;;;;;;5068928;28;20059;-78
2023/01/21 10:52:37;;;;;;;7.05;4.18;;;1.80;99.90;;;;;;5077261;28;20043;-78
2023/01/21 10:55:32;;;;;;;10.55;5.30;;;1.80;99.90;;;;;;5056419;28;20038;-78
2023/01/21 10:58:04;;;;;;;16.33;6.55;;;1.80;99.90;;;;;;5083182;28;20046;-78
2023/01/21 11:00:38;;;;;;;11.52;5.18;;;1.80;99.90;;;;;;5049718;28;20047;-78
2023/01/21 11:03:21;;;;;;;12.52;4.78;;;1.80;99.90;;;;;;5077783;28;20121;-78
2023/01/21 11:05:46;;;;;;;8.75;5.00;;;1.80;99.90;;;;;;5053339;28;20040;-78
2023/01/21 11:08:18;;;;;;;16.20;6.93;;;1.80;99.90;;;;;;5049758;28;20051;-78
2023/01/21 11:10:45;;;;;;;18.20;6.82;;;1.80;99.90;;;;;;5065812;28;20071;-78
2023/01/21 11:13:13;;;;;;;11.73;5.95;;;1.80;99.90;;;;;;5068268;28;20667;-78
2023/01/21 11:15:45;;;;;;;15.50;7.07;;;1.80;99.90;;;;;;5051673;28;20222;-78
2023/01/21 11:18:35;;;;;;;10.05;5.47;;;1.80;99.90;;;;;;5070489;28;20937;-78
2023/01/21 11:21:16;;;;;;;9.90;5.72;;;1.90;99.90;;;;;;5084149;28;20033;-78
2023/01/21 11:23:55;;;;;;;7.28;4.05;;;1.90;99.90;;;;;;5067630;28;20052;-78
2023/01/21 11:26:31;;;;;;;11.95;6.65;;;1.90;99.90;;;;;;5053333;28;20067;-78
2023/01/21 11:29:13;;;;;;;11.07;4.68;;;2.00;99.90;;;;;;5082862;28;20036;-78
2023/01/21 11:31:40;;;;;;;11.60;5.07;;;2.00;99.90;;;;;;5068781;28;20043;-78
2023/01/21 11:34:15;;;;;;;14.23;6.65;;;2.00;99.90;;;;;;5090968;28;20048;-78
2023/01/21 11:36:54;;;;;;;12.68;5.70;;;2.00;99.90;;;;;;5067377;28;20047;-78
2023/01/21 11:39:23;;;;;;;10.88;5.22;;;2.10;99.90;;;;;;5050642;28;20082;-78
2023/01/21 11:42:01;;;;;;;15.15;6.03;;;2.10;99.90;;;;;;5059896;28;20037;-78
2023/01/21 11:44:27;;;;;;;12.23;5.68;;;2.20;99.90;;;;;;5071150;28;20037;-78
2023/01/21 11:46:52;;;;;;;10.07;5.90;;;2.20;99.90;;;;;;5064951;28;20460;-78
2023/01/21 11:49:22;;;;;;;10.35;5.32;;;2.30;99.90;;;;;;5076038;28;20044;-78
2023/01/21 11:51:48;;;;;;;14.15;5.53;;;2.30;99.90;;;;;;5070014;28;20101;-78
2023/01/21 11:54:22;;;;;;;11.02;5.15;;;2.40;99.90;;;;;;5058112;28;20081;-78
2023/01/21 11:57:19;;;;;;;11.45;5.15;;;2.50;99.90;;;;;;5055444;28;20359;-77
2023/01/21 11:59:46;;;;;;;9.63;4.32;;;2.50;99.90;;;;;;5067736;28;20117;-78
2023/01/21 12:02:26;;;;;;;9.98;5.40;;;2.50;99.90;;;;;;5067588;28;20052;-78
2023/01/21 12:05:03;;;;;;;10.93;5.75;;;2.50;99.90;;;;;;5074376;28;20064;-78
2023/01/21 12:07:36;;;;;;;8.20;4.15;;;2.60;99.90;;;;;;5071624;28;20540;-77
2023/01/21 12:10:18;;;;;;;15.40;3.97;;;2.60;99.90;;;;;;5069482;28;20048;-85
2023/01/21 12:12:55;;;;;;;10.40;3.90;;;2.70;99.90;;;;;;5069702;28;20090;-78
2023/01/21 12:15:40;;;;;;;10.63;3.60;;;2.70;99.90;;;;;;5067166;28;20039;-77
2023/01/21 12:18:26;;;;;;;7.70;4.05;;;2.80;99.90;;;;;;5085633;28;20050;-77
2023/01/21 12:21:09;;;;;;;8.43;4.60;;;2.80;99.90;;;;;;5087685;28;20493;-77
2023/01/21 12:23:48;;;;;;;12.63;4.47;;;2.90;99.90;;;;;;5087961;28;20129;-77
2023/01/21 12:26:36;;;;;;;9.10;4.18;;;2.90;99.90;;;;;;5073937;28;20036;-77
2023/01/21 12:29:08;;;;;;;6.60;3.17;;;2.90;99.90;;;;;;5108235;28;20071;-77
2023/01/21 12:31:43;;;;;;;7.82;3.95;;;2.90;99.90;;;;;;5090486;28;20043;-77
2023/01/21 12:34:22;;;;;;;8.43;4.28;;;3.00;99.90;;;;;;5074018;28;20348;-77
2023/01/21 12:36:53;;;;;;;9.07;3.83;;;3.00;99.90;;;;;;5090506;28;20409;-77
2023/01/21 12:39:30;;;;;;;10.38;4.00;;;3.00;99.90;;;;;;5073777;28;20040;-77
2023/01/21 12:42:04;;;;;;;8.18;3.83;;;3.00;99.90;;;;;;5090956;28;20048;-78
2023/01/21 12:44:39;;;;;;;8.02;3.40;;;3.00;99.90;;;;;;5091083;28;20201;-77
2023/01/21 12:47:17;;;;;;;9.00;3.88;;;3.10;99.90;;;;;;5066569;28;20040;-77
2023/01/21 12:49:57;;;;;;;6.70;3.63;;;3.10;99.90;;;;;;5080542;28;20349;-77
2023/01/21 12:52:47;;;;;;;9.45;4.20;;;3.00;99.90;;;;;;5090062;28;20066;-77
2023/01/21 12:55:19;;;;;;;11.30;5.45;;;3.00;99.90;;;;;;5051558;28;20543;-77
2023/01/21 12:58:18;;;;;;;8.02;3.50;;;3.00;99.90;;;;;;5063326;28;20498;-77
2023/01/21 13:00:50;;;;;;;7.50;3.13;;;3.00;99.90;;;;;;5070584;28;20075;-77
2023/01/21 13:03:15;;;;;;;6.80;3.47;;;3.00;99.90;;;;;;5056492;28;20041;-77
2023/01/21 13:06:09;;;;;;;8.18;3.25;;;3.00;99.90;;;;;;5053498;28;20047;-77
2023/01/21 13:08:58;;;;;;;6.30;2.90;;;3.00;99.90;;;;;;5069888;28;20122;-77
2023/01/21 13:11:29;;;;;;;8.20;2.92;;;3.00;99.90;;;;;;5069522;28;20057;-77
2023/01/21 13:14:07;;;;;;;4.95;2.72;;;3.00;99.90;;;;;;5073667;28;20421;-77